Tiempo atmosférico en la estación meteorológica de Lekeitio, Bizkaia (12 m.)



Fecha
DESCASC
Temp. máxima en grados centígrados (hora)
DESCASC
Temp. mínima en grados centígrados (hora)
DESCASC
Temp. media en grados centígrados
DESCASC
Racha de viento máxima en m/sg (hora)
DESCASC
Velocidad máxima media en intervalos de 10 minutos(hora)
DESCASC
Precipitaciones diarias en mm
DESCASC
Precipitaciones de 00:00 a 06:00 en mm
DESCASC
Precipitaciones de 06:00 a 12:00 en mm
DESCASC
Precipitaciones de 12:00 a 18:00 en mm
DESCASC
Precipitaciones de 18:00 a 24:00 en mm
DESCASC
17-02-2019 -- (--) -- (--) -- 19.17 (07:00) 8.89 (06:00) 0 0 0 0 0
16-02-2019 -- (--) -- (--) -- 19.17 (23:40) 9.17 (23:20) 0 0 0 0 0
15-02-2019 -- (--) -- (--) -- 12.5 (01:50) 7.22 (01:50) 0 0 0 0 0
14-02-2019 -- (--) -- (--) -- 13.06 (23:00) 8.89 (23:00) 0 0 0 0 0
13-02-2019 -- (--) -- (--) -- 6.39 (19:40) 4.44 (19:20) 0 0 0 0 0
12-02-2019 -- (--) -- (--) -- 5.83 (09:40) 4.44 (09:40) 0 0 0 0 0
11-02-2019 -- (--) -- (--) -- 21.67 (02:50) 16.67 (02:50) 3.2 0.3 1 1.9 0
10-02-2019 -- (--) -- (--) -- 21.94 (10:50) 17.22 (10:20) 0.3 0 0 0.3 0
09-02-2019 -- (--) -- (--) -- 12.22 (23:59) 5 (13:10) 0 0 0 0 0
08-02-2019 -- (--) -- (--) -- 11.94 (22:50) 7.78 (14:00) 0 0 0 0 0
07-02-2019 -- (--) -- (--) -- 11.94 (11:00) 8.89 (11:00) 0 0 0 0 0
06-02-2019 -- (--) -- (--) -- 7.78 (11:20) 5.28 (11:30) 0 0 0 0 0
05-02-2019 -- (--) -- (--) -- 19.72 (01:30) 6.39 (02:30) 0 0 0 0 0
04-02-2019 -- (--) -- (--) -- 10.56 (19:40) 5.56 (06:10) 0 0 0 0 0
03-02-2019 -- (--) -- (--) -- 25 (07:50) 17.22 (08:00) 0.9 0 0 0.2 0.7
02-02-2019 -- (--) -- (--) -- 34.72 (09:30) 25.28 (09:30) 4.9 1.8 2.7 0 0.4
01-02-2019 -- (--) -- (--) -- 17.78 (16:40) 11.11 (16:50) 3.4 0.4 0 2.2 0.8
31-01-2019 -- (--) -- (--) -- 22.78 (18:20) 14.72 (18:00) 23.5 4.1 5.9 5.2 8.3
30-01-2019 -- (--) -- (--) -- 29.72 (00:40) 21.67 (00:10) 9.3 0.9 5.9 0 2.5
29-01-2019 -- (--) -- (--) -- 33.33 (23:50) 23.06 (21:10) 8.5 2.2 1.2 2.9 2.2
28-01-2019 -- (--) -- (--) -- 35 (07:20) 24.72 (07:20) 4.2 2.1 1.5 0.6 0
27-01-2019 -- (--) -- (--) -- 31.39 (06:20) 23.33 (12:30) 4.9 0.9 2.2 1.3 0.5
26-01-2019 -- (--) -- (--) -- 7.22 (00:20) 4.72 (18:40) 0 0 0 0 0
25-01-2019 -- (--) -- (--) -- 29.17 (03:10) 16.39 (03:10) 0.3 0.2 0 0 0.1
24-01-2019 -- (--) -- (--) -- 20 (03:40) 15 (00:10) 3.6 0 1.1 0.7 1.8
23-01-2019 -- (--) -- (--) -- 31.67 (06:20) 26.11 (06:40) 8.8 5.2 3.6 0 0
22-01-2019 -- (--) -- (--) -- 25.83 (13:30) 19.72 (13:30) 16.5 0 3.7 5 7.8
21-01-2019 -- (--) -- (--) -- 20 (06:30) 10.83 (05:30) 0.1 0.1 0 0 0
20-01-2019 11.2 (12:20) 8.7 (00:00) 9.9 20 (20:40) 12.5 (08:00) 2.2 0.3 0.8 0.2 0.9
19-01-2019 12.4 (14:40) 7.7 (00:00) 10 12.22 (01:00) 7.78 (00:30) 0.4 0.4 0 0 0

Gráficas

Temp. máximas Temp. mínimas Temp. medias Precipitaciones Rachas de viento máximas Velocidades máximas media en intervalos de 10 minutos

Datos horarios

Fecha y hora oficial Temperatura (ºC) Velocidad del viento (km/h) Dirección del viento Racha (km/h) Dirección de racha Precipitación (mm) Presión (hPa) Tendencia (hPa) Humedad (%)
2019-02-17 23:00:00 14 18 Sudeste 29 Sudeste 0 1010 -0.7 35
2019-02-17 22:00:00 14 18 Sudeste 31 Sudeste 0 1010.4 0.1 34
2019-02-17 21:00:00 13.9 11 Sudeste 25 Sudeste 0 1010.5 0.3 35
2019-02-17 20:00:00 13 0 Calma 9 Este 0 1010.7 0.1 40
2019-02-17 19:00:00 13.3 0 Calma 14 Sur 0 1010.3 -0.7 46
2019-02-17 18:00:00 15.7 3 Sudeste 9 Oeste 0 1010.2 -1.4 32
2019-02-17 17:00:00 17.3 3 Noroeste 11 Noroeste 0 1010.6 -1.4 30
2019-02-17 16:00:00 17.3 6 Noroeste 16 Noroeste 0 1011 -1.7 30
2019-02-17 15:00:00 18.6 4 Nordeste 13 Sur 0 1011.6 -1.6 26
2019-02-17 14:00:00 17.8 6 Nordeste 25 Sur 0 1012 -1.5 26
2019-02-17 13:00:00 18.9 15 Sur 37 Sur 0 1012.7 -1.1 24
2019-02-17 12:00:00 17.8 21 Sur 39 Sur 0 1013.2 -0.5 26
2019-02-17 11:00:00 16.2 20 Sur 38 Sudeste 0 1013.5 0.4 27
2019-02-17 10:00:00 15.2 19 Sur 37 Sudeste 0 1013.8 1.5 28
2019-02-17 09:00:00 13.8 23 Sudeste 43 Sudeste 0 1013.7 1.3 28
2019-02-17 08:00:00 13.7 27 Sudeste 47 Sur 0 1013.1 0.6 28
2019-02-17 07:00:00 13.9 29 Sur 69 Sur 0 1012.3 -0.3 29
2019-02-17 06:00:00 14.2 32 Sur 47 Sur 0 1012.4 -0.3 30
2019-02-17 05:00:00 14.5 29 Sudeste 42 Sur 0 1012.5 -0.9 31
2019-02-17 04:00:00 14.7 21 Sudeste 46 Sur 0 1012.6 -0.8 31
2019-02-17 03:00:00 14.9 27 Sudeste 42 Sudeste 0 1012.7 -0.5 32
2019-02-17 02:00:00 14.8 14 Sudeste 40 Sudeste 0 1013.4 -0.1 32
2019-02-17 01:00:00 15.1 26 Sur 47 Sur 0 1013.4 -0.2 32
2019-02-17 00:00:00 15.2 26 Sur 69 Sur 0 1013.2 -0.6 34
2019-02-16 23:00:00 13.8 27 Sudeste 44 Sudeste 0 1013.5 -0.8 36
2019-02-16 22:00:00 14.7 32 Sudeste 42 Sudeste 0 1013.6 -0.3 35
2019-02-16 21:00:00 14.4 23 Sudeste 35 Sudeste 0 1013.8 -0.1 38
2019-02-16 20:00:00 15.6 17 Sudeste 31 Sudeste 0 1014.3 0.1 37
2019-02-16 19:00:00 15.7 24 Sur 35 Sudeste 0 1013.9 -0.9 38
2019-02-16 18:00:00 16.7 26 Sudeste 41 Sudeste 0 1013.9 -1.5 36
2019-02-16 17:00:00 18.5 23 Sudeste 37 Sudeste 0 1014.2 -2.2 34
2019-02-16 16:00:00 19 19 Sudeste 39 Sudeste 0 1014.8 -2.8 36
2019-02-16 15:00:00 18.9 23 Sudeste 36 Sudeste 0 1015.4 -2.7 39
2019-02-16 14:00:00 17.6 10 Sudeste 21 Sudeste 0 1016.4 -2.1 46
2019-02-16 13:00:00 14.3 0 Calma 15 Sudeste 0 1017.6 -1.1 52
2019-02-16 12:00:00 14.3 8 Sudeste 19 Sudeste 0 1018.1 -0.5 55
2019-02-16 11:00:00 13.7 10 Sudeste 26 Sudeste 0 1018.5 0 55
2019-02-16 10:00:00 14 16 Sudeste 23 Sudeste 0 1018.7 0.2 46
2019-02-16 09:00:00 12.1 16 Sudeste 21 Sudeste 0 1018.6 0.1 49
2019-02-16 08:00:00 10.9 11 Sudeste 21 Sudeste 0 1018.5 -0.2 50
2019-02-16 07:00:00 12.1 9 Sur 25 Sur 0 1018.5 -0.5 47
2019-02-16 06:00:00 12.3 13 Sur 24 Sur 0 1018.5 -0.9 47
2019-02-16 05:00:00 11.9 11 Sur 19 Sur 0 1018.7 -1 48
2019-02-16 04:00:00 12.1 11 Sur 18 Sur 0 1019 -0.6 48
2019-02-16 03:00:00 11.8 5 Sur 15 Sur 0 1019.4 0.1 48
2019-02-16 02:00:00 11.7 2 Sudeste 24 Sudoeste 0 1019.7 0.5 52
2019-02-16 01:00:00 12.9 5 Sur 27 Sudoeste 0 1019.6 0.8 43
2019-02-16 00:00:00 14.6 14 Sudoeste 23 Sudoeste 0 1019.3 0.5 36
2019-02-15 23:00:00 14.5 15 Sur 24 Sudoeste 0 1019.2 0.4 34
2019-02-15 22:00:00 14.9 17 Sur 24 Sudoeste 0 1018.8 0.5 32
2019-02-15 21:00:00 15.1 13 Sur 23 Sur 0 1018.8 0.8 34
2019-02-15 20:00:00 13.7 6 Sur 12 Sur 0 1018.8 0.8 40
2019-02-15 19:00:00 14.4 0 Calma 8 Sur 0 1018.3 0.5 44
2019-02-15 18:00:00 15.4 0 Calma -- -- 0 1018 0 40
2019-02-15 17:00:00 18.2 0 Calma 6 Sudeste 0 1018 -0.4 36
2019-02-15 16:00:00 17.5 0 Calma 13 Noroeste 0 1017.8 -1.1 37
2019-02-15 15:00:00 16.8 9 Noroeste 15 Noroeste 0 1018 -1.3 36
2019-02-15 14:00:00 16.6 9 Oeste 18 Sur 0 1018.4 -0.5 37
2019-02-15 13:00:00 16.1 8 Oeste 15 Sudeste 0 1018.9 0.1 37
2019-02-15 12:00:00 16.4 5 Sudeste 25 Sudeste 0 1019.3 0.9 36
2019-02-15 11:00:00 16.6 14 Sudeste 25 Sudeste 0 1018.9 0.8 36
2019-02-15 10:00:00 14.9 14 Sur 32 Sur 0 1018.8 1.1 36
2019-02-15 09:00:00 13 19 Sur 27 Sur 0 1018.4 1.2 38
2019-02-15 08:00:00 12.6 12 Sudeste 21 Sudeste 0 1018.1 0.8 38
2019-02-15 07:00:00 13.4 9 Sur 36 Sur 0 1017.7 0.5 37
2019-02-15 06:00:00 13.4 16 Sur 27 Sudeste 0 1017.2 -0.4 36
2019-02-15 05:00:00 14.3 3 Sur 23 Sudoeste 0 1017.3 0.1 35
2019-02-15 04:00:00 13.6 9 Sur 32 Sur 0 1017.2 -0.4 36
2019-02-15 03:00:00 13.9 15 Sur 44 Sur 0 1017.6 0.2 35
2019-02-15 02:00:00 14.2 26 Sur 45 Sudeste 0 1017.2 -0.3 35
2019-02-15 01:00:00 14.1 17 Sudeste 42 Sudeste 0 1017.6 -0.3 34
2019-02-15 00:00:00 14.3 22 Sudeste 46 Sur 0 1017.4 -0.9 34
2019-02-14 23:00:00 14.3 32 Sur 47 Sudeste 0 1017.5 -0.7 33
2019-02-14 22:00:00 14.3 24 Sur 44 Sur 0 1017.9 -0.3 32
2019-02-14 21:00:00 14 16 Sudeste 32 Sudeste 0 1018.3 0.1 33
2019-02-14 20:00:00 14.1 20 Sudeste 29 Sudeste 0 1018.2 -0.1 34
2019-02-14 19:00:00 14.5 18 Sudeste 27 Sudeste 0 1018.2 -0.2 34
2019-02-14 18:00:00 15.9 13 Sudeste 28 Sudeste 0 1018.2 -0.5 31
2019-02-14 17:00:00 17.9 18 Sudeste 25 Sudeste 0 1018.3 -1.1 32
2019-02-14 16:00:00 18.4 16 Sudeste 25 Sudeste 0 1018.4 -1.9 32
2019-02-14 15:00:00 18.2 17 Sudeste 37 Sudeste 0 1018.7 -2.1 32
2019-02-14 14:00:00 17.6 21 Sudeste 41 Sudeste 0 1019.4 -1.5 32
2019-02-14 13:00:00 17.2 24 Sudeste 41 Sudeste 0 1020.3 -0.6 37
2019-02-14 12:00:00 15.8 21 Sudeste 38 Sudeste 0 1020.8 0.1 39
2019-02-14 11:00:00 14.8 15 Sudeste 32 Sudeste 0 1020.9 0.6 44
2019-02-14 10:00:00 14.1 11 Sudeste 28 Sur 0 1020.9 0.7 45
2019-02-14 09:00:00 12.2 11 Sudeste 31 Sudeste 0 1020.7 0.4 49
2019-02-14 08:00:00 12.2 15 Sudeste 33 Sudeste 0 1020.3 0 49
2019-02-14 07:00:00 12.3 12 Sudeste 29 Sudeste 0 1020.2 -0.7 50
2019-02-14 06:00:00 11.8 13 Sudeste 27 Sudeste 0 1020.3 -0.9 53
2019-02-14 05:00:00 11.3 18 Sudeste 25 Sudeste 0 1020.3 -1.1 52
2019-02-14 04:00:00 10.8 13 Sudeste 21 Sudeste 0 1020.9 -0.9 56
2019-02-14 03:00:00 10.8 11 Sudeste 16 Sur 0 1021.2 -0.5 58
2019-02-14 02:00:00 10.5 10 Sudeste 17 Sudeste 0 1021.4 -0.2 61
2019-02-14 01:00:00 9.4 3 Sudeste 9 Sudeste 0 1021.8 0 64
2019-02-14 00:00:00 9.4 5 Sudeste 12 Sur 0 1021.7 0 64
2019-02-13 23:00:00 9.8 6 Sudeste 14 Sudeste 0 1021.6 0 61
2019-02-13 22:00:00 8 0 Calma 8 Sudoeste 0 1021.8 0.5 72
2019-02-13 21:00:00 8.9 4 Oeste 18 Sur 0 1021.7 0.6 68
2019-02-13 20:00:00 10.5 14 Sur 23 Sur 0 1021.6 0.4 59
2019-02-13 19:00:00 9.9 15 Sur 21 Sur 0 1021.3 0 58
2019-02-13 18:00:00 9.6 14 Sur 18 Sur 0 1021.1 -0.5 68
2019-02-13 17:00:00 11 9 Sudeste 14 Sudeste 0 1021.2 -0.9 76
2019-02-13 16:00:00 11.1 7 Sudeste 17 Sudeste 0 1021.3 -1.5 76
2019-02-13 15:00:00 10.9 6 Este 12 Sudeste 0 1021.6 -1.5 74
2019-02-13 14:00:00 10.6 8 Sudeste 13 Sudeste 0 1022.1 -1 75
2019-02-13 13:00:00 10.2 6 Sudeste 12 Sudeste 0 1022.8 -0.4 75
2019-02-13 12:00:00 9.2 6 Sudeste 12 Sudeste 0 1023.1 0 76
2019-02-13 11:00:00 8.7 9 Sudeste 14 Sudeste 0 1023.1 0.4 79
2019-02-13 10:00:00 7.8 12 Sudeste 15 Sudeste 0 1023.2 0.4 87
2019-02-13 09:00:00 5.9 11 Sudeste 15 Sudeste 0 1023.1 0.3 91
2019-02-13 08:00:00 4 9 Sur 14 Sur 0 1022.7 -0.4 94
2019-02-13 07:00:00 5.1 11 Sur 13 Sur 0 1022.8 -0.7 95
2019-02-13 06:00:00 3.8 8 Sur 13 Sur 0 1022.8 -1.1 95
2019-02-13 05:00:00 4.2 8 Sur 12 Sur 0 1023.1 -1.1 95
2019-02-13 04:00:00 4.1 8 Sur 12 Sur 0 1023.5 -1.2 94
2019-02-13 03:00:00 4.9 5 Sur 9 Sur 0 1023.9 -0.9 92
2019-02-13 02:00:00 5.6 8 Sudeste 13 Sur 0 1024.2 -1 89
2019-02-13 01:00:00 6.5 8 Sudeste 13 Sur 0 1024.7 -0.6 86
2019-02-13 00:00:00 7.8 9 Sudeste 17 Sudeste 0 1024.8 -0.4 83
2019-02-12 23:00:00 7.8 11 Sur 19 Sudeste 0 1025.2 -0.1 84
2019-02-12 22:00:00 8.3 12 Sudeste 18 Sudeste 0 1025.3 0.1 84
2019-02-12 21:00:00 7.7 8 Sur 18 Sudeste 0 1025.2 0.3 84
2019-02-12 20:00:00 8.5 10 Sur 17 Sudeste 0 1025.3 0.1 81
2019-02-12 19:00:00 8.8 10 Sur 18 Este 0 1025.2 -0.4 78
2019-02-12 18:00:00 9.6 6 Sudeste 20 Sudeste 0 1024.9 -1.1 74
2019-02-12 17:00:00 10.9 5 Sudeste 20 Este 0 1025.2 -1.3 70
2019-02-12 16:00:00 11.3 6 Sudeste 18 Sudeste 0 1025.6 -1.5 68
2019-02-12 15:00:00 10.3 4 Este 14 Sudeste 0 1026 -1.4 70
2019-02-12 14:00:00 10.5 5 Este 14 Este 0 1026.5 -1 71
2019-02-12 13:00:00 9.7 8 Sudeste 16 Sudeste 0 1027.1 -0.3 77
2019-02-12 12:00:00 9.4 9 Sudeste 17 Sudeste 0 1027.4 0.2 81
2019-02-12 11:00:00 8.9 9 Sudeste 15 Sudeste 0 1027.5 0.6 84
2019-02-12 10:00:00 7.6 13 Sur 21 Sur 0 1027.4 0.6 91
2019-02-12 09:00:00 5.7 14 Sur 19 Sur 0 1027.2 0.2 95
2019-02-12 08:00:00 5.8 11 Sur 17 Sur 0 1026.9 0.2 96
2019-02-12 07:00:00 5.6 10 Sur 14 Sur 0 1026.8 0.1 97
2019-02-12 06:00:00 6.5 7 Sudoeste 11 Sur 0 1027 0.2 97
2019-02-12 05:00:00 6.1 5 Sur 11 Sur 0 1026.7 -0.4 97
2019-02-12 04:00:00 5.8 5 Sudoeste 11 Sur 0 1026.7 -0.6 97
2019-02-12 03:00:00 5.5 8 Sur 12 Sur 0 1026.8 -0.7 96
2019-02-12 02:00:00 6.1 8 Sur 15 Sur 0 1027.1 -0.3 94
2019-02-12 01:00:00 6 5 Sudoeste 12 Sudoeste 0 1027.3 0 93
2019-02-12 00:00:00 6.7 5 Sudoeste 11 Oeste 0 1027.5 0.4 90
2019-02-11 23:00:00 7.7 4 Oeste 12 Sudoeste 0 1027.4 0.6 88
2019-02-11 22:00:00 8 5 Sudoeste 13 Oeste 0 1027.3 0.9 86
2019-02-11 21:00:00 8.9 8 Oeste 15 Oeste 0 1027.1 1.2 82
2019-02-11 20:00:00 9 10 Oeste 14 Oeste 0 1026.8 1 81
2019-02-11 19:00:00 9 9 Oeste 15 Oeste 0 1026.4 0.8 85
2019-02-11 18:00:00 9.3 7 Oeste 13 Oeste 0 1025.9 0.6 84
2019-02-11 17:00:00 9.8 9 Oeste 26 Noroeste 0 1025.8 0.6 77
2019-02-11 16:00:00 8.3 13 Noroeste 30 Noroeste 0.7 1025.6 0.2 90
2019-02-11 15:00:00 8.4 31 Noroeste 50 Noroeste 0.5 1025.3 0 89
2019-02-11 14:00:00 9.1 12 Oeste 24 Oeste 0 1025.2 0.8 84
2019-02-11 13:00:00 9.4 6 Oeste 24 Oeste 0.7 1025.4 1.7 86
2019-02-11 12:00:00 8.7 16 Oeste 31 Oeste 0 1025.3 2.1 83
2019-02-11 11:00:00 9 15 Oeste 32 Oeste 0.1 1024.4 2.1 83
2019-02-11 10:00:00 8.2 15 Oeste 35 Oeste 0.2 1023.7 2.1 85
2019-02-11 09:00:00 8.5 19 Oeste 33 Oeste 0.1 1023.2 2 84
2019-02-11 08:00:00 7.8 5 Oeste 27 Oeste 0.6 1022.3 1.2 87
2019-02-11 07:00:00 8.3 17 Oeste 37 Oeste 0 1021.6 0.7 81
2019-02-11 06:00:00 8.9 21 Oeste 33 Oeste 0.1 1021.2 0.6 76
2019-02-11 05:00:00 8.2 20 Noroeste 42 Noroeste 0.2 1021.1 1.3 85
2019-02-11 04:00:00 8.4 13 Oeste 41 Oeste 0 1020.9 1.5 78
2019-02-11 03:00:00 8.6 39 Noroeste 78 Noroeste 0 1020.6 1.4 79
2019-02-11 02:00:00 9.2 19 Oeste 39 Oeste 0 1019.8 1 76
2019-02-11 01:00:00 9.1 17 Oeste 41 Oeste 0 1019.4 1.1 75
2019-02-11 00:00:00 9.4 12 Oeste 32 Oeste 0 1019.2 1.4 69
2019-02-10 23:00:00 9.7 17 Oeste 34 Oeste 0 1018.8 1.2 66
2019-02-10 22:00:00 9.7 18 Oeste 34 Oeste 0 1018.3 1.8 69
2019-02-10 21:00:00 10 19 Oeste 41 Noroeste 0 1017.8 2 68
2019-02-10 20:00:00 10.1 24 Noroeste 46 Noroeste 0 1017.6 2.6 71
2019-02-10 19:00:00 9.9 19 Noroeste 69 Noroeste 0 1016.5 2.6 70
2019-02-10 18:00:00 10 18 Oeste 50 Noroeste 0 1015.8 2.2 71
2019-02-10 17:00:00 9.9 22 Oeste 51 Noroeste 0 1015 2.6 78
2019-02-10 16:00:00 9.3 44 Noroeste 72 Noroeste 0 1013.9 1.3 87
2019-02-10 15:00:00 9.7 35 Noroeste 69 Noroeste 0.1 1013.6 2.1 83
2019-02-10 14:00:00 10.4 25 Noroeste 43 Oeste 0.1 1012.4 1.8 79
2019-02-10 13:00:00 9.5 17 Oeste 53 Oeste 0.1 1012.6 5 90
2019-02-10 12:00:00 9.9 20 Oeste 49 Oeste 0 1011.5 7.4 83
2019-02-10 11:00:00 9.2 54 Noroeste 79 Noroeste 0 1010.6 7.3 --
2019-02-10 10:00:00 14.2 14 Oeste 56 Sur 0 1007.6 3.8 --
2019-02-10 09:00:00 14.4 22 Sudoeste 56 Sudoeste 0 1004.1 0.6 --
2019-02-10 08:00:00 13.4 18 Sudoeste 55 Sudoeste 0 1003.3 -0.2 --
2019-02-10 07:00:00 13.7 19 Sur 69 Sur 0 1003.8 -1.2 --
2019-02-10 06:00:00 14 22 Sur 70 Sur 0 1003.5 -2.3 --
2019-02-10 05:00:00 13.8 25 Sur 69 Sudeste 0 1003.5 -2.6 --
2019-02-10 04:00:00 13.3 26 Sur 52 Sur 0 1005 -1.7 --
2019-02-10 03:00:00 13.9 23 Sur 51 Sudeste 0 1005.8 -1.1 --
2019-02-10 02:00:00 13.9 19 Sur 51 Sur 0 1006.1 -1.1 --
2019-02-10 01:00:00 14.2 19 Sur 44 Sur 0 1006.7 -1.5 --
2019-02-10 00:00:00 14.5 13 Sur 44 Sur 0 1006.9 -1.2 --
2019-02-09 23:00:00 15.2 12 Sudeste 33 Sudeste 0 1007.2 -1.2 --
2019-02-09 22:00:00 15.2 6 Sur 42 Sur 0 1008.2 -0.2 --
2019-02-09 21:00:00 15 8 Sudoeste 35 Sudeste 0 1008.1 -0.5 --
2019-02-09 20:00:00 14.4 3 Nordeste 18 Sudeste 0 1008.4 -0.6 --
2019-02-09 19:00:00 14.3 6 Sur 19 Sur 0 1008.4 -1.3 --
2019-02-09 18:00:00 14.9 7 Sur 21 Sudeste 0 1008.6 -1.7 --
2019-02-09 17:00:00 16.1 4 Sur 29 Sur 0 1009 -2.2 --
2019-02-09 16:00:00 16.7 8 Sur 24 Sudeste 0 1009.7 -2.6 --
2019-02-09 15:00:00 16.4 9 Sur 28 Sur 0 1010.3 -2.8 --
2019-02-09 14:00:00 16.1 10 Sur 31 Sudeste 0 1011.2 -2.2 --
2019-02-09 13:00:00 15 15 Sur 28 Sur 0 1012.3 -1.2 --
2019-02-09 12:00:00 13.7 13 Sur 29 Sur 0 1013.1 -0.2 --
2019-02-09 11:00:00 12.4 13 Sur 24 Sur 0 1013.4 0.5 --
2019-02-09 10:00:00 11 12 Sur 19 Sudoeste 0 1013.5 1 --
2019-02-09 09:00:00 10.3 6 Sur 14 Sur 0 1013.3 0.7 --
2019-02-09 08:00:00 9.5 8 Sur 18 Sur 0 1012.9 0.4 --
2019-02-09 07:00:00 10.3 13 Sur 18 Sur 0 1012.5 0 --
2019-02-09 06:00:00 10 9 Sur 14 Sur 0 1012.6 0 --
2019-02-09 05:00:00 10.5 9 Sur 21 Sudoeste 0 1012.5 0.3 --
2019-02-09 04:00:00 10.1 14 Sur 21 Sur 0 1012.5 0.5 --
2019-02-09 03:00:00 10.7 9 Sur 18 Sur 0 1012.6 1 --
2019-02-09 02:00:00 11.7 5 Sur 19 Sur 0 1012.2 0.9 --
2019-02-09 01:00:00 11.5 12 Sur 29 Sur 0 1012 0.9 --
2019-02-09 00:00:00 13.4 18 Sudoeste 38 Sudoeste 0 1011.6 0.6 --
2019-02-08 23:00:00 13.4 22 Sudoeste 43 Sudoeste 0 1011.3 0.8 --
2019-02-08 22:00:00 11 10 Sur 20 Sur 0 1011.1 0.2 --
2019-02-08 21:00:00 10.5 9 Sur 23 Sur 0 1011 -0.7 --
2019-02-08 20:00:00 10.1 14 Sur 26 Sur 0 1010.5 -0.9 --
2019-02-08 19:00:00 9 17 Sur 21 Sur 0 1010.9 0.1 --
2019-02-08 18:00:00 10 4 Oeste 26 Noroeste 0 1011.7 0.9 --
2019-02-08 17:00:00 10.3 14 Noroeste 25 Noroeste 0 1011.4 0.3 --
2019-02-08 16:00:00 10.2 18 Noroeste 28 Noroeste 0 1010.8 -0.5 --
2019-02-08 15:00:00 9.7 20 Noroeste 34 Noroeste 0 1010.8 -1.3 --
2019-02-08 14:00:00 9.7 28 Noroeste 34 Noroeste 0 1011.1 -1.4 --
2019-02-08 13:00:00 9.5 20 Noroeste 26 Noroeste 0 1011.3 -1.4 --
2019-02-08 12:00:00 9.4 13 Noroeste 17 Noroeste 0 1012.1 -0.3 --
2019-02-08 11:00:00 9.8 8 Oeste 10 Oeste 0 1012.5 0.3 --
2019-02-08 10:00:00 9.2 3 Oeste 7 Oeste 0 1012.7 0.3 --
2019-02-08 09:00:00 8.6 6 Oeste 8 Oeste 0 1012.4 -0.5 --
2019-02-08 08:00:00 6.9 0 Calma 12 Sudoeste 0 1012.2 -1.3 --
2019-02-08 07:00:00 6 6 Sudoeste 15 Sur 0 1012.4 -2 --
2019-02-08 06:00:00 5.8 7 Sur 20 Sur 0 1012.9 -2 --
2019-02-08 05:00:00 6.8 17 Sur 24 Sur 0 1013.5 -2.4 --
2019-02-08 04:00:00 8.1 14 Sur 26 Sur 0 1014.4 -2 --
2019-02-08 03:00:00 7.7 15 Sur 25 Sur 0 1014.9 -2.2 --
2019-02-08 02:00:00 7.3 14 Sur 18 Sur 0 1015.9 -1.4 --
2019-02-08 01:00:00 7.1 13 Sur 17 Sur 0 1016.4 -1.1 --
2019-02-08 00:00:00 6.7 11 Sur 16 Sur 0 1017.1 -0.8 --
2019-02-07 23:00:00 7.4 12 Sur 17 Sur 0 1017.3 -0.8 --
2019-02-07 22:00:00 7.2 12 Sur 17 Sur 0 1017.5 -0.6 --
2019-02-07 21:00:00 7.3 8 Sur 12 Sur 0 1017.9 -0.1 --
2019-02-07 20:00:00 7.9 9 Sur 13 Sur 0 1018.1 0.2 --
2019-02-07 19:00:00 9.6 3 Sudoeste 10 Sudoeste 0 1018.1 0.1 --
2019-02-07 18:00:00 10 3 Sudoeste 13 Noroeste 0 1018 -0.2 --
2019-02-07 17:00:00 11 8 Noroeste 23 Noroeste 0 1017.9 0.1 --
2019-02-07 16:00:00 11.1 17 Noroeste 28 Noroeste 0 1018 -0.1 --
2019-02-07 15:00:00 10.8 18 Noroeste 43 Noroeste 0 1018.2 0.3 --
2019-02-07 14:00:00 10.9 23 Noroeste 37 Noroeste 0 1017.8 0.4 --
2019-02-07 13:00:00 10.7 25 Noroeste 39 Noroeste 0 1018.1 0.7 --
2019-02-07 12:00:00 10.3 31 Noroeste 38 Oeste 0 1017.9 1.2 --
2019-02-07 11:00:00 10.2 32 Noroeste 43 Noroeste 0 1017.4 1.5 --
2019-02-07 10:00:00 11.4 13 Oeste 28 Oeste 0 1017.4 2.1 --
2019-02-07 09:00:00 11.4 14 Oeste 24 Oeste 0 1016.7 1.7 --
2019-02-07 08:00:00 11.5 12 Oeste 27 Oeste 0 1015.9 1 --
2019-02-07 07:00:00 11.7 14 Oeste 24 Oeste 0 1015.3 0.2 --
2019-02-07 06:00:00 10.2 3 Sudoeste 14 Sur 0 1015 -0.2 --
2019-02-07 05:00:00 9.2 11 Sur 17 Sur 0 1014.9 -0.4 --
2019-02-07 04:00:00 8.9 6 Sur 13 Sudoeste 0 1015.1 -0.5 --
2019-02-07 03:00:00 9.5 5 Sur 15 Sur 0 1015.2 0.2 --
2019-02-07 02:00:00 9.6 10 Sur 18 Sur 0 1015.3 0.9 --
2019-02-07 01:00:00 10.1 3 Noroeste 23 Oeste 0 1015.6 1.4 --
2019-02-07 00:00:00 10.6 10 Noroeste 27 Noroeste 0 1015 1 --
2019-02-06 23:00:00 11 15 Noroeste 27 Noroeste 0 1014.4 0.3 --
2019-02-06 22:00:00 10.5 5 Oeste 12 Noroeste 0 1014.2 0.3 --
2019-02-06 21:00:00 11.6 10 Oeste 15 Oeste 0 1014 0.2 --
2019-02-06 20:00:00 10.7 4 Sudoeste 10 Sudoeste 0 1014.1 0.2 --
2019-02-06 19:00:00 10.5 2 Sur 14 Oeste 0 1013.9 -0.3 --
2019-02-06 18:00:00 11.7 5 Sudeste 21 Sudeste 0 1013.8 -1 --
2019-02-06 17:00:00 12.4 18 Sudeste 25 Sudeste 0 1013.9 -2 --
2019-02-06 16:00:00 11.7 16 Sudeste 22 Sudeste 0 1014.2 -2.6 --
2019-02-06 15:00:00 11.8 13 Sudeste 21 Sudeste 0 1014.8 -2.7 --
2019-02-06 14:00:00 12.3 9 Sudeste 18 Sudeste 0 1015.9 -2.4 --
2019-02-06 13:00:00 12.4 8 Sudeste 22 Sudeste 0 1016.8 -2.2 --
2019-02-06 12:00:00 11.9 15 Sudeste 28 Sudeste 0 1017.5 -1.5 --
2019-02-06 11:00:00 11.5 16 Sudeste 24 Sudeste 0 1018.3 -1 --
2019-02-06 10:00:00 10.6 16 Sur 23 Sur 0 1019 -0.4 --
2019-02-06 09:00:00 9.1 13 Sur 17 Sur 0 1019 -0.8 --
2019-02-06 08:00:00 9.2 10 Sur 16 Sur 0 1019.3 -0.8 --
2019-02-06 07:00:00 8.9 10 Sur 15 Sur 0 1019.4 -1.2 --
2019-02-06 06:00:00 9 9 Sur 14 Sur 0 1019.8 -1.1 --
2019-02-06 05:00:00 8.6 5 Sur 13 Sur 0 1020.1 -1.1 --
2019-02-06 04:00:00 8.8 6 Sudeste 15 Sur 0 1020.6 -0.9 --
2019-02-06 03:00:00 9.3 8 Sur 14 Sur 0 1020.9 -0.9 --
2019-02-06 02:00:00 8.8 3 Sur 10 Sur 0 1021.2 -0.9 --
2019-02-06 01:00:00 9 7 Sur 14 Sudeste 0 1021.5 -0.7 --
2019-02-06 00:00:00 9.9 8 Sur 10 Sur 0 1021.8 -0.2 --
2019-02-05 23:00:00 10.2 4 Sur 8 Sur 0 1022.1 -0.2 --
2019-02-05 22:00:00 10.6 0 Calma 10 Sur 0 1022.2 0 --
2019-02-05 21:00:00 10.5 4 Sudeste 9 Este 0 1022 -0.1 --
2019-02-05 20:00:00 11.1 6 Sudeste 13 Sudeste 0 1022.3 0.3 --
2019-02-05 19:00:00 11.3 8 Sudeste 12 Sudeste 0 1022.2 0.2 --
2019-02-05 18:00:00 11.7 3 Nordeste 6 Este 0 1022.1 -0.1 --
2019-02-05 17:00:00 12.3 4 Este 10 Sudeste 0 1022 -0.3 --
2019-02-05 16:00:00 12.7 8 Sudeste 11 Sudeste 0 1022 -0.8 --
2019-02-05 15:00:00 12.3 3 Norte 23 Noroeste 0 1022.2 -0.9 --
2019-02-05 14:00:00 12.6 20 Noroeste 30 Noroeste 0 1022.3 -0.3 --
2019-02-05 13:00:00 12.9 9 Noroeste 19 Noroeste 0 1022.8 0.7 --
2019-02-05 12:00:00 12.7 10 Noroeste 27 Oeste 0 1023.1 1.8 --
2019-02-05 11:00:00 12.8 15 Oeste 30 Oeste 0 1022.6 1.7 --
2019-02-05 10:00:00 12.8 15 Oeste 30 Oeste 0 1022.1 1.1 --
2019-02-05 09:00:00 13.3 15 Oeste 39 Oeste 0 1021.3 0.4 --
2019-02-05 08:00:00 12.4 14 Oeste 35 Oeste 0 1020.9 0.6 --
2019-02-05 07:00:00 11.9 13 Oeste 37 Oeste 0 1021 0.5 --
2019-02-05 06:00:00 12.1 17 Oeste 37 Oeste 0 1020.9 0.1 --
2019-02-05 05:00:00 12.4 18 Oeste 37 Oeste 0 1020.3 -0.5 --
2019-02-05 04:00:00 12.2 15 Oeste 43 Oeste 0 1020.5 -0.5 --
2019-02-05 03:00:00 12.1 17 Oeste 46 Noroeste 0 1020.8 -0.3 --
2019-02-05 02:00:00 11.7 22 Oeste 71 Noroeste 0 1020.8 -0.4 --
2019-02-05 01:00:00 11.7 19 Oeste 68 Oeste 0 1021 0.1 --
2019-02-05 00:00:00 10.2 9 Sudoeste 30 Oeste 0 1021.1 0.5 --
2019-02-04 23:00:00 9.9 4 Sudoeste 25 Oeste 0 1021.2 0.9 --
2019-02-04 22:00:00 10.7 6 Sudoeste 32 Sudoeste 0 1020.9 0.9 --
2019-02-04 21:00:00 11.2 11 Oeste 35 Sudoeste 0 1020.6 0.5 --
2019-02-04 20:00:00 10.9 9 Sudoeste 38 Oeste 0 1020.3 0.2 --
2019-02-04 19:00:00 10.4 13 Sudoeste 33 Sudoeste 0 1020 0.1 --
2019-02-04 18:00:00 10.4 7 Sudoeste 26 Oeste 0 1020.1 0.3 --
2019-02-04 17:00:00 10.3 9 Sudoeste 22 Sudoeste 0 1020.1 0 --
2019-02-04 16:00:00 11.2 4 Sudoeste 27 Oeste 0 1019.9 -0.6 --
2019-02-04 15:00:00 11.4 0 Calma 18 Sur 0 1019.8 -1.2 --
2019-02-04 14:00:00 10.1 5 Noroeste 8 Noroeste 0 1020.1 -0.9 --
2019-02-04 13:00:00 9.7 3 Noroeste 9 Noroeste 0 1020.5 -0.5 --
2019-02-04 12:00:00 7.7 9 Noroeste 14 Sur 0 1021 -0.1 --
2019-02-04 11:00:00 7.4 3 Sur 17 Sur 0 1021 0.1 79
2019-02-04 10:00:00 5.1 5 Sur 20 Sur 0 1021 -0.2 83
2019-02-04 09:00:00 4.1 9 Sur 27 Sudoeste 0 1021.1 -0.4 84
2019-02-04 08:00:00 3.8 18 Sur 29 Sur 0 1020.9 -1.7 87
2019-02-04 07:00:00 3.5 18 Sur 32 Sur 0 1021.2 -1.7 90
2019-02-04 06:00:00 3.2 18 Sur 31 Sur 0 1021.5 -1.4 94
2019-02-04 05:00:00 2.9 15 Sur 22 Sur 0 1022.6 -1.1 95
2019-02-04 04:00:00 2.8 13 Sur 24 Sur 0 1022.9 -0.9 96
2019-02-04 03:00:00 2.6 16 Sur 22 Sur 0 1022.9 -0.7 97
2019-02-04 02:00:00 3.2 10 Sur 17 Sur 0 1023.7 -0.4 95
2019-02-04 01:00:00 3.6 12 Sur 19 Sur 0 1023.8 -0.2 95
2019-02-04 00:00:00 4.1 9 Sur 18 Sur 0 1023.6 -0.4 93
2019-02-03 23:00:00 6.3 10 Oeste 19 Oeste 0 1024.1 0.2 87
2019-02-03 22:00:00 4.4 5 Sudoeste 15 Sudoeste 0.1 1024 1.1 95
2019-02-03 21:00:00 5.1 5 Sudoeste 14 Sur 0.2 1024 2 94
2019-02-03 20:00:00 5 9 Sur 13 Sur 0.2 1023.9 1.5 91
2019-02-03 19:00:00 6.2 6 Oeste 26 Oeste 0.2 1022.9 0.6 83
2019-02-03 18:00:00 5.9 8 Sudoeste 14 Sur 0 1022 -0.7 90
2019-02-03 17:00:00 6.6 2 Oeste 20 Noroeste 0 1022.4 1 84
2019-02-03 16:00:00 6.3 21 Noroeste 37 Norte 0.2 1022.3 0.4 85
2019-02-03 15:00:00 6.8 6 Nordeste 71 Noroeste 0 1022.7 0.7 82
2019-02-03 14:00:00 6.9 36 Noroeste 51 Noroeste 0 1021.4 -0.3 81
2019-02-03 13:00:00 6.8 45 Noroeste 61 Noroeste 0 1021.9 1.3 74
2019-02-03 12:00:00 7.4 40 Noroeste 72 Noroeste 0 1022 2.7 76
2019-02-03 11:00:00 6.5 14 Norte 71 Norte 0 1021.7 2.4 75
2019-02-03 10:00:00 -- 30 Norte 57 Noroeste 0 1020.6 2.7 --
2019-02-03 09:00:00 -- 51 Noroeste 60 Noroeste 0 1019.3 1.7 --
2019-02-03 08:00:00 -- 62 Noroeste 90 Norte 0 1019.3 2.5 --
2019-02-03 07:00:00 -- 35 Noroeste 76 Noroeste 0 1017.9 1.8 --
2019-02-03 06:00:00 -- 26 Norte 55 Norte 0 1017.6 1.8 --
2019-02-03 05:00:00 -- 34 Norte 66 Norte 0 1016.8 1.7 --
2019-02-03 04:00:00 -- 44 Noroeste 62 Noroeste 0 1016.1 2 --
2019-02-03 03:00:00 -- 50 Noroeste 71 Norte 0 1015.8 3.6 --
2019-02-03 02:00:00 -- 34 Norte 65 Norte 0 1015.1 2.9 --
2019-02-03 01:00:00 -- 40 Noroeste 71 Noroeste 0 1014.1 3.7 --
2019-02-03 00:00:00 -- 45 Noroeste 72 Norte 0 1012.2 1.6 --
2019-02-02 23:00:00 -- 47 Norte 77 Noroeste 0 1012.2 2.9 --
2019-02-02 22:00:00 -- 47 Noroeste 99 Noroeste 0 1010.4 1.2 --
2019-02-02 21:00:00 -- 37 Noroeste 98 Noroeste 0.4 1010.6 3 --
2019-02-02 20:00:00 -- 50 Noroeste 67 Noroeste 0 1009.3 2.9 --
2019-02-02 19:00:00 -- 55 Noroeste 90 Norte 0 1009.2 3.6 --
2019-02-02 18:00:00 -- 60 Noroeste 108 Noroeste 0 1007.6 1.8 --
2019-02-02 17:00:00 -- 60 Noroeste 77 Noroeste 0 1006.4 2.5 --
2019-02-02 16:00:00 -- 54 Noroeste 72 Noroeste 0 1005.6 2.1 --
2019-02-02 15:00:00 -- 54 Noroeste 80 Noroeste 0 1005.8 3.4 --
2019-02-02 14:00:00 -- 60 Noroeste 87 Noroeste 0 1003.9 3.9 --
2019-02-02 13:00:00 -- 64 Noroeste 98 Noroeste 0 1003.5 4.5 --
2019-02-02 12:00:00 -- 72 Noroeste 107 Noroeste 0.1 1002.4 6.5 --
2019-02-02 11:00:00 -- 75 Noroeste 107 Noroeste 0.1 1000 5.5 --
2019-02-02 10:00:00 -- 70 Noroeste 125 Noroeste -- 999 6.1 --
2019-02-02 09:00:00 -- 85 Noroeste 108 Noroeste 0.3 995.9 5.4 --
2019-02-02 08:00:00 -- 75 Noroeste 105 Noroeste -- 994.5 4.3 --
2019-02-02 07:00:00 -- 76 Noroeste 116 Noroeste 0.9 992.9 4.3 --
2019-02-02 06:00:00 -- 67 Noroeste 108 Noroeste 0.4 990.5 2.5 --
2019-02-02 05:00:00 -- 55 Noroeste 78 Noroeste 0 990.2 3.3 --
2019-02-02 04:00:00 -- 50 Noroeste 84 Oeste 1.2 988.6 3.2 --
2019-02-02 03:00:00 -- 16 Sudoeste 48 Sudoeste 0.1 988 3 --
2019-02-02 02:00:00 -- 17 Oeste 55 Oeste 0.1 986.9 2.5 --
2019-02-02 01:00:00 -- 26 Oeste 56 Oeste 0 985.4 1.9 --
2019-02-02 00:00:00 -- 15 Sudoeste 43 Sudoeste 0 985 2.8 --
2019-02-01 23:00:00 -- 20 Sudoeste 41 Sudoeste 0 984.4 2.7 --
2019-02-01 22:00:00 -- 11 Oeste 39 Oeste 0.1 983.5 2.9 --
2019-02-01 21:00:00 -- 14 Sudoeste 26 Noroeste 0.3 982.2 2.8 --
2019-02-01 20:00:00 -- 11 Sudoeste 35 Oeste 0.4 981.7 2.1 --
2019-02-01 19:00:00 -- 17 Sudoeste 40 Sudoeste 0 980.6 2.3 --
2019-02-01 18:00:00 -- 23 Sudoeste 41 Sudoeste 1 979.4 1.4 --
2019-02-01 17:00:00 -- 22 Oeste 64 Noroeste 0.5 979.6 1.4 --
2019-02-01 16:00:00 -- 8 Sudoeste 30 Sur 0.7 978.3 -0.7 --
2019-02-01 15:00:00 -- 8 Oeste 37 Sur 0 978 -2.2 --
2019-02-01 14:00:00 -- 9 Sudoeste 35 Sudoeste 0 978.2 -1.4 --
2019-02-01 13:00:00 -- 3 Oeste 24 Sudoeste 0 979 -0.3 --
2019-02-01 12:00:00 -- 8 Sudoeste 40 Oeste 0 980.2 1.2 --
2019-02-01 11:00:00 -- 12 Sudoeste 40 Sudeste 0 979.6 1.4 --
2019-02-01 10:00:00 -- 12 Sudoeste 48 Sur 0 979.3 0.2 --
2019-02-01 09:00:00 -- 15 Sudoeste 51 Sudoeste 0 979 -1.4 --
2019-02-01 08:00:00 -- 15 Sur 37 Sur 0 978.2 -3.3 --
2019-02-01 07:00:00 -- 6 Sur 15 Sur 0 979.1 -3.1 --
2019-02-01 06:00:00 -- 9 Sur 18 Sudeste 0 980.4 -2.8 --
2019-02-01 05:00:00 -- 12 Sur 18 Sur 0 981.5 -2.8 --
2019-02-01 04:00:00 -- 12 Sur 19 Sur 0 982.2 -2.6 --
2019-02-01 03:00:00 -- 10 Sur 14 Sur 0.2 983.2 -2.2 --
2019-02-01 02:00:00 -- 3 Oeste 14 Sur 0 984.3 -1.5 --
2019-02-01 01:00:00 -- 9 Sur 16 Sur 0.2 984.8 -1.1 --
2019-02-01 00:00:00 -- 6 Sudoeste 20 Oeste 0.1 985.4 -0.4 --
2019-01-31 23:00:00 -- 7 Sudoeste 20 Sudoeste 0 985.8 -0.2 --
2019-01-31 22:00:00 -- 13 Sudoeste 26 Oeste 2.4 985.9 0.2 --
2019-01-31 21:00:00 -- 14 Oeste 36 Oeste 1.4 985.8 1.7 --
2019-01-31 20:00:00 -- 17 Oeste 41 Oeste 2.9 986 1.6 --
2019-01-31 19:00:00 -- 21 Oeste 82 Noroeste 1.5 985.7 0.9 --
2019-01-31 18:00:00 -- 53 Noroeste 65 Noroeste 4.9 984.1 -1.1 --
2019-01-31 17:00:00 -- 12 Oeste 25 Noroeste 0.2 984.4 -1.4 --
2019-01-31 16:00:00 -- 18 Noroeste 27 Noroeste 0 984.8 -2 --
2019-01-31 15:00:00 -- 14 Noroeste 22 Noroeste 0 985.2 -2.2 --
2019-01-31 14:00:00 -- 5 Sudoeste 28 Noroeste 0 985.8 -0.9 --
2019-01-31 13:00:00 -- 8 Sudoeste 30 Sur 0.1 986.8 -0.4 --
2019-01-31 12:00:00 -- 13 Sudoeste 34 Oeste 0 987.4 0.4 --
2019-01-31 11:00:00 -- 12 Sudoeste 41 Sur 0 986.7 -0.5 --
2019-01-31 10:00:00 -- 13 Sudoeste 35 Sudoeste 0.1 987.2 0.2 --
2019-01-31 09:00:00 -- 20 Sudoeste 39 Sudoeste 1 987 -0.3 --
2019-01-31 08:00:00 -- 20 Sudoeste 42 Sudoeste 2.1 987.2 -0.6 --
2019-01-31 07:00:00 -- 19 Sudoeste 44 Sudoeste 2.7 987 -1.2 --
2019-01-31 06:00:00 -- 23 Sur 48 Sudoeste 0.2 987.3 -1.8 --
2019-01-31 05:00:00 -- 16 Sur 39 Sur 0.8 987.8 -2.1 --
2019-01-31 04:00:00 -- 15 Sur 40 Sudoeste 0.8 988.2 -2.7 --
2019-01-31 03:00:00 -- 17 Sur 34 Sudoeste 0.5 989.1 -3 --
2019-01-31 02:00:00 -- 16 Sur 31 Sur 0.8 989.9 -3.3 --
2019-01-31 01:00:00 -- 16 Sur 33 Sudoeste 1 990.9 -2.7 --
2019-01-31 00:00:00 -- 15 Sur 24 Sudeste 0.6 992.1 -1.9 --
2019-01-30 23:00:00 -- 10 Sur 31 Sur 1.6 993.2 -2 --
2019-01-30 22:00:00 -- 13 Sur 29 Sudoeste 0.3 993.6 -2.3 --
2019-01-30 21:00:00 -- 13 Sur 33 Sur 0 994 -2.6 --
2019-01-30 20:00:00 -- 6 Sur 11 Sudeste 0 995.2 -2.6 --
2019-01-30 19:00:00 -- 5 Sudeste 9 Sudeste 0 995.9 -3 --
2019-01-30 18:00:00 -- 6 Sur 8 Sudoeste 0 996.6 -3.5 --
2019-01-30 17:00:00 -- 4 Sudoeste 6 Sudoeste 0 997.8 -3.6 --
2019-01-30 16:00:00 -- 0 Calma 15 Oeste 0 998.9 -3.2 --
2019-01-30 15:00:00 -- 7 Oeste 20 Oeste 0 1000.1 -2.9 --
2019-01-30 14:00:00 -- 10 Oeste 31 Noroeste 0 1001.4 -1.7 --
2019-01-30 13:00:00 -- 10 Oeste 31 Sudoeste 0 1002.1 -1.2 --
2019-01-30 12:00:00 -- 12 Sudoeste 48 Sudoeste 0 1003 -0.7 --
2019-01-30 11:00:00 -- 27 Sudoeste 51 Sudoeste 0.1 1003.1 -0.5 --
2019-01-30 10:00:00 -- 14 Sudoeste 44 Sudoeste 2.6 1003.3 -0.2 --
2019-01-30 09:00:00 -- 12 Oeste 48 Oeste 0.4 1003.7 0.3 --
2019-01-30 08:00:00 -- 14 Oeste 45 Oeste 1.6 1003.6 0.1 --
2019-01-30 07:00:00 -- 22 Noroeste 44 Oeste 1.2 1003.5 -0.1 --
2019-01-30 06:00:00 -- 19 Sudoeste 54 Sudoeste 0.6 1003.4 0.6 --
2019-01-30 05:00:00 -- 20 Oeste 69 Noroeste 0.3 1003.5 0.9 --
2019-01-30 04:00:00 -- 11 Oeste 81 Noroeste 0 1003.6 0.8 --
2019-01-30 03:00:00 -- 50 Noroeste 75 Noroeste 0 1002.8 1.4 --
2019-01-30 02:00:00 -- 36 Noroeste 81 Noroeste 0 1002.6 -0.9 --
2019-01-30 01:00:00 -- 39 Noroeste 107 Noroeste 0 1002.8 0.3 --
2019-01-30 00:00:00 -- 78 Noroeste 120 Noroeste 0.6 1001.4 0.6 --
2019-01-29 23:00:00 -- 32 Noroeste 97 Noroeste 0 1003.5 1.8 --
2019-01-29 22:00:00 -- 70 Noroeste 111 Noroeste 0.5 1002.5 2.1 --
2019-01-29 21:00:00 -- 81 Noroeste 116 Noroeste 0.6 1000.8 1.7 --
2019-01-29 20:00:00 -- 35 Oeste 115 Noroeste 0.2 1001.7 2.7 --
2019-01-29 19:00:00 -- 43 Oeste 106 Noroeste 0.3 1000.4 2.9 --
2019-01-29 18:00:00 -- 37 Noroeste 117 Oeste 0.3 999.1 1.7 --
2019-01-29 17:00:00 -- 36 Oeste 108 Noroeste 0.1 999 1.5 --
2019-01-29 16:00:00 -- 48 Noroeste 95 Noroeste 0.2 997.5 -1.3 --
2019-01-29 15:00:00 -- 23 Oeste 72 Oeste 0.6 997.4 -3.3 --
2019-01-29 14:00:00 -- 19 Sur 34 Sur 1 997.5 -3.8 --
2019-01-29 13:00:00 -- 14 Sur 36 Sudoeste 0.7 998.8 -4.5 --
2019-01-29 12:00:00 -- 7 Sur 24 Sur 0 1000.7 -3.4 --
2019-01-29 11:00:00 -- 15 Sur 23 Sur 0.4 1001.3 -3.7 --
2019-01-29 10:00:00 -- 12 Sur 24 Sur 0.6 1003.3 -2.6 --
2019-01-29 09:00:00 -- 13 Sudoeste 34 Sudoeste 0.2 1004.1 -3.1 --
2019-01-29 08:00:00 -- 14 Sudoeste 36 Sudoeste 0 1005 -3.1 --
2019-01-29 07:00:00 -- 12 Sudoeste 34 Oeste 0 1005.9 -3.1 --
2019-01-29 06:00:00 -- 11 Oeste 39 Noroeste 0.1 1007.2 -2.2 --
2019-01-29 05:00:00 -- 14 Oeste 35 Oeste 0.8 1008.1 -1.7 --
2019-01-29 04:00:00 -- 11 Sudoeste 27 Noroeste 0.9 1009 -1.4 --
2019-01-29 03:00:00 -- 19 Oeste 44 Oeste 0.4 1009.4 -1.4 --
2019-01-29 02:00:00 -- 21 Noroeste 40 Noroeste 0 1009.8 -1.1 --
2019-01-29 01:00:00 -- 14 Oeste 60 Noroeste 0 1010.4 -0.5 --
2019-01-29 00:00:00 -- 23 Noroeste 43 Noroeste 0 1010.8 0.7 --
2019-01-28 23:00:00 -- 38 Noroeste 78 Noroeste 0 1010.9 1.8 --
2019-01-28 22:00:00 -- 35 Noroeste 90 Noroeste 0 1010.9 2.1 --
2019-01-28 21:00:00 -- 44 Noroeste 87 Noroeste 0 1010.1 1.5 --
2019-01-28 20:00:00 -- 59 Noroeste 86 Noroeste 0 1009.1 1 --
2019-01-28 19:00:00 -- 67 Noroeste 102 Noroeste 0 1008.8 2.4 --
2019-01-28 18:00:00 -- 55 Noroeste 104 Noroeste 0 1008.6 2 --
2019-01-28 17:00:00 -- 69 Noroeste 97 Noroeste 0.4 1008.1 2 --
2019-01-28 16:00:00 -- 81 Noroeste 107 Noroeste -- 1006.4 0.6 --
2019-01-28 15:00:00 -- 78 Noroeste 106 Noroeste 0.2 1006.6 -1.1 --
2019-01-28 14:00:00 -- 72 Noroeste 107 Noroeste 0 1006.1 1 --
2019-01-28 13:00:00 -- 78 Noroeste 98 Noroeste 0 1005.8 1.2 --
2019-01-28 12:00:00 -- 70 Noroeste 106 Noroeste 0 1007.7 4.6 --
2019-01-28 11:00:00 -- 73 Noroeste 104 Noroeste 0.5 1005.1 1.1 --
2019-01-28 10:00:00 -- 69 Noroeste 100 Noroeste 0.2 1004.6 1.6 --
2019-01-28 09:00:00 -- 76 Noroeste 102 Noroeste 0.2 1003.1 -1.5 --
2019-01-28 08:00:00 -- 59 Noroeste 126 Noroeste 0.5 1004 -1.1 --
2019-01-28 07:00:00 -- 43 Noroeste 78 Oeste 0.1 1003 -3.2 --
2019-01-28 06:00:00 -- 33 Oeste 73 Noroeste 0 1004.6 -3.2 --
2019-01-28 05:00:00 -- 39 Noroeste 74 Noroeste 0.5 1005.1 -3.9 --
2019-01-28 04:00:00 -- 24 Oeste 59 Oeste 0.4 1006.2 -3.1 --
2019-01-28 03:00:00 -- 21 Oeste 50 Oeste 0.3 1007.8 -2.2 --
2019-01-28 02:00:00 -- 20 Oeste 68 Oeste 0.3 1009 -1.4 --
2019-01-28 01:00:00 -- 19 Oeste 51 Oeste 0.6 1009.3 -0.6 --
2019-01-28 00:00:00 -- 46 Noroeste 89 Noroeste 0.4 1010 0.5 --
2019-01-27 23:00:00 -- 28 Oeste 88 Noroeste 0 1010.4 0.1 --
2019-01-27 22:00:00 -- 51 Noroeste 82 Noroeste 0 1009.9 1.1 --
2019-01-27 21:00:00 -- 61 Noroeste 78 Noroeste 0 1009.5 1 --
2019-01-27 20:00:00 -- 48 Noroeste 105 Noroeste 0 1010.3 2.8 --
2019-01-27 19:00:00 -- 68 Noroeste 107 Noroeste 0.1 1008.8 1.8 --
2019-01-27 18:00:00 -- 67 Noroeste 105 Noroeste 0 1008.5 2.1 --
2019-01-27 17:00:00 -- 66 Noroeste 107 Noroeste 0 1007.5 -0.8 --
2019-01-27 16:00:00 -- 73 Noroeste 102 Noroeste 0.3 1007 1.1 --
2019-01-27 15:00:00 -- 75 Noroeste 96 Noroeste 0 1006.4 0.9 --
2019-01-27 14:00:00 9.9 32 Oeste 96 Noroeste 0.1 1008.3 4.2 86
2019-01-27 13:00:00 10.2 80 Noroeste 111 Noroeste 0.9 1005.9 0.6 91
2019-01-27 12:00:00 11.1 65 Noroeste 108 Noroeste 0.6 1005.5 0.6 81
2019-01-27 11:00:00 11 52 Noroeste 100 Oeste 0.2 1004.1 0.8 86
2019-01-27 10:00:00 9.3 19 Oeste 72 Oeste 0.5 1005.3 1.1 99
2019-01-27 09:00:00 5.2 51 Noroeste 93 Noroeste 0.3 1004.9 0.3 99
2019-01-27 08:00:00 10.2 30 Oeste 70 Oeste 0.2 1003.3 -0.9 88
2019-01-27 07:00:00 10.2 24 Oeste 113 Noroeste 0.4 1004.2 -0.2 92
2019-01-27 06:00:00 9.3 44 Noroeste 87 Noroeste 0.3 1004.6 -0.2 98
2019-01-27 05:00:00 10.2 37 Oeste 98 Noroeste 0.4 1004.2 -1.1 91
2019-01-27 04:00:00 8.9 35 Noroeste 74 Noroeste 0.2 1004.4 -1.6 95
2019-01-27 03:00:00 10 25 Oeste 49 Noroeste 0 1004.8 -2.3 93
2019-01-27 02:00:00 8.7 6 Sudoeste 15 Oeste 0 1005.3 -2.4 98
2019-01-27 01:00:00 7.9 4 Sur 36 Oeste 0 1006 -2.3 98
2019-01-27 00:00:00 9.4 13 Oeste 25 Sudoeste 0 1007.1 -1.6 96
2019-01-26 23:00:00 8.8 10 Sudoeste 25 Oeste 0 1007.7 -1.4 96
2019-01-26 22:00:00 9.3 6 Sudoeste 21 Oeste 0 1008.3 -1 99
2019-01-26 21:00:00 9.3 8 Oeste 23 Oeste 0 1008.7 -0.8 97
2019-01-26 20:00:00 9.5 2 Oeste 17 Oeste 0 1009.1 -0.7 96
2019-01-26 19:00:00 10.4 14 Oeste 24 Oeste 0 1009.3 -0.9 94
2019-01-26 18:00:00 10.8 10 Oeste 14 Noroeste 0 1009.5 -1.3 84
2019-01-26 17:00:00 11.6 3 Sudeste 7 Sudeste 0 1009.8 -1.9 79
2019-01-26 16:00:00 12.5 0 Calma 7 Sudeste 0 1010.2 -2.4 75
2019-01-26 15:00:00 11.9 5 Sudeste 9 Sudeste 0 1010.8 -3.1 83
2019-01-26 14:00:00 12 3 Sudeste 15 Sudeste 0 1011.7 -2.5 79
2019-01-26 13:00:00 12.8 4 Sur 14 Sur 0 1012.6 -2.2 72
2019-01-26 12:00:00 12.6 7 Sur 13 Sudoeste 0 1013.9 -1.1 77
2019-01-26 11:00:00 8.7 0 Calma 11 Sudoeste 0 1014.2 -0.9 94
2019-01-26 10:00:00 8.9 0 Calma 10 Sur 0 1014.8 -0.3 96
2019-01-26 09:00:00 5.1 4 Sur 10 Sur 0 1015 -0.4 97
2019-01-26 08:00:00 5.3 0 Calma 14 Noroeste 0 1015.1 -0.7 97
2019-01-26 07:00:00 6.7 3 Oeste 16 Noroeste 0 1015.1 -1.2 96
2019-01-26 06:00:00 7.8 7 Oeste 19 Sudoeste 0 1015.4 -1 95
2019-01-26 05:00:00 7.6 10 Oeste 21 Oeste 0 1015.8 -0.8 95
2019-01-26 04:00:00 5.3 8 Sudoeste 21 Oeste 0 1016.3 -0.8 97
2019-01-26 03:00:00 7.5 14 Oeste 25 Oeste 0 1016.4 -1 94
2019-01-26 02:00:00 5.3 12 Oeste 26 Oeste 0 1016.6 -0.9 99
2019-01-26 01:00:00 6.3 12 Oeste 26 Oeste 0 1017.1 -0.1 99
2019-01-26 00:00:00 5.2 14 Oeste 27 Oeste 0.1 1017.4 0.4 99
2019-01-25 23:00:00 5 18 Oeste 34 Oeste 0 1017.5 0.8 99
2019-01-25 22:00:00 5 17 Oeste 33 Oeste 0 1017.2 1 99
2019-01-25 21:00:00 5 19 Oeste 33 Noroeste 0 1017 1.2 99
2019-01-25 20:00:00 4.7 18 Oeste 58 Noroeste 0 1016.7 1.1 99
2019-01-25 19:00:00 5.1 27 Noroeste 69 Noroeste 0 1016.2 0.8 99
2019-01-25 18:00:00 5 22 Noroeste 62 Noroeste 0 1015.8 1.2 99
2019-01-25 17:00:00 6.9 37 Noroeste 54 Noroeste 0 1015.6 0.8 95
2019-01-25 16:00:00 5.9 32 Noroeste 64 Noroeste 0 1015.4 0.4 99
2019-01-25 15:00:00 7.5 40 Noroeste 59 Noroeste 0 1014.6 -0.3 97
2019-01-25 14:00:00 8.7 34 Noroeste 60 Norte 0 1014.8 0 99
2019-01-25 13:00:00 7.6 39 Noroeste 63 Noroeste 0 1015 1.1 99
2019-01-25 12:00:00 7.7 41 Noroeste 71 Noroeste 0 1014.9 1.6 99
2019-01-25 11:00:00 9.2 36 Noroeste 68 Noroeste 0 1014.8 3.1 99
2019-01-25 10:00:00 10.1 40 Noroeste 67 Noroeste 0 1013.9 2.3 99
2019-01-25 09:00:00 8.2 25 Noroeste 69 Noroeste 0 1013.3 2.1 99
2019-01-25 08:00:00 6.3 53 Noroeste 66 Noroeste 0 1011.7 0.5 99
2019-01-25 07:00:00 6.1 44 Noroeste 74 Noroeste 0 1011.6 0.9 99
2019-01-25 06:00:00 8.7 46 Noroeste 68 Noroeste 0 1011.2 0.7 99
2019-01-25 05:00:00 8 33 Noroeste 75 Noroeste 0 1011.2 1.1 99
2019-01-25 04:00:00 8.2 50 Noroeste 105 Noroeste 0 1010.7 0 99
2019-01-25 03:00:00 10.1 53 Noroeste 74 Noroeste 0 1010.5 -0.8 99
2019-01-25 02:00:00 10.1 41 Noroeste 58 Noroeste 0.1 1010.1 -1.3 99
2019-01-25 01:00:00 9.3 17 Oeste 32 Oeste 0.1 1010.7 -0.7 99
2019-01-25 00:00:00 8.5 5 Noroeste 15 Noroeste 0.1 1011.3 -0.1 99
2019-01-24 23:00:00 7.4 3 Noroeste 10 Noroeste 0.2 1011.4 0.8 99
2019-01-24 22:00:00 7.3 4 Sur 7 Sur 0.9 1011.4 1.3 99
2019-01-24 21:00:00 7.3 5 Sur 8 Sur 0.3 1011.4 1.5 99
2019-01-24 20:00:00 7.3 3 Sur 9 Sur 0 1010.6 1.2 99
2019-01-24 19:00:00 7.2 6 Sur 9 Sur 0.3 1010.1 1.1 99
2019-01-24 18:00:00 7.5 4 Sur 8 Sur 0.4 1009.9 0.9 99
2019-01-24 17:00:00 7.9 6 Sudeste 9 Sudeste 0 1009.4 0.8 99
2019-01-24 16:00:00 7.9 0 Calma 16 Noroeste 0.1 1009 0.4 99
2019-01-24 15:00:00 7.6 9 Noroeste 15 Noroeste 0 1009 0.5 99
2019-01-24 14:00:00 7.8 6 Noroeste 12 Noroeste 0.1 1008.6 1 99
2019-01-24 13:00:00 7.2 6 Sur 14 Sudeste 0.1 1008.6 1.4 99
2019-01-24 12:00:00 6.7 9 Sudeste 17 Sudeste 0 1008.5 2.1 99
2019-01-24 11:00:00 6.3 15 Sudeste 24 Sudeste 0.4 1007.6 1.6 99
2019-01-24 10:00:00 6.4 14 Sudeste 27 Sudeste 0.7 1007.2 2.2 99
2019-01-24 09:00:00 7.9 3 Este 33 Norte 0 1006.4 1.9 99
2019-01-24 08:00:00 9 22 Noroeste 43 Norte 0 1006 1.7 98
2019-01-24 07:00:00 9.2 30 Noroeste 71 Norte 0 1005 1 95
2019-01-24 06:00:00 9.1 40 Noroeste 69 Norte 0 1004.5 0.4 98
2019-01-24 05:00:00 9.7 40 Noroeste 49 Norte 0 1004.3 0.7 95
2019-01-24 04:00:00 9.6 37 Noroeste 72 Norte 0 1004 0.5 98
2019-01-24 03:00:00 9 42 Noroeste 64 Noroeste 0 1004.1 1.1 99
2019-01-24 02:00:00 9.3 51 Noroeste 65 Noroeste 0 1003.6 0.9 98
2019-01-24 01:00:00 10 52 Noroeste 69 Noroeste 0 1003.5 1.6 99
2019-01-24 00:00:00 9.6 49 Noroeste 65 Noroeste 0 1003 2.6 99
2019-01-23 23:00:00 10.1 50 Noroeste 71 Noroeste 0 1002.7 2.8 99
2019-01-23 22:00:00 10.3 55 Noroeste 106 Noroeste 0 1001.9 2.4 99
2019-01-23 21:00:00 10.7 68 Noroeste 92 Noroeste -- 1000.4 1.4 99
2019-01-23 20:00:00 10.1 64 Noroeste 103 Noroeste 0 999.9 1.9 99
2019-01-23 19:00:00 11 69 Noroeste 107 Noroeste 0 999.5 0.3 99
2019-01-23 18:00:00 10.4 63 Noroeste 107 Noroeste 0 999 -0.6 99
2019-01-23 17:00:00 11.2 64 Noroeste 84 Noroeste 0 998 -1 99
2019-01-23 16:00:00 10.5 51 Noroeste 103 Noroeste 0 999.2 0.7 99
2019-01-23 15:00:00 9.7 49 Noroeste 72 Noroeste 0 999.6 1 99
2019-01-23 14:00:00 10.1 59 Noroeste 76 Noroeste 0 999 1.2 99
2019-01-23 13:00:00 10.8 62 Noroeste 82 Noroeste 0 998.5 2 99
2019-01-23 12:00:00 10.1 69 Noroeste 103 Noroeste 0 998.6 2.2 99
2019-01-23 11:00:00 10.9 67 Noroeste 105 Noroeste 0 997.8 4 99
2019-01-23 10:00:00 10.8 73 Noroeste 100 Noroeste 0 996.5 -- 99
2019-01-23 09:00:00 11.1 65 Noroeste 105 Noroeste 0.2 996.4 2.7 99
2019-01-23 08:00:00 11.6 71 Noroeste -- -- -- 993.8 -1.3 98
2019-01-23 07:00:00 -- 84 Noroeste 114 Noroeste 1.8 -- -- --
2019-01-23 06:00:00 11.6 55 Noroeste 95 Noroeste 0.8 993.7 -5 99
2019-01-23 05:00:00 9.7 17 Sudoeste 50 Noroeste 2.5 995.1 -4.8 99
2019-01-23 04:00:00 9.8 10 Oeste 46 Noroeste 1.5 997.1 -3.4 99
2019-01-23 03:00:00 10 21 Oeste 42 Oeste 0.4 998.7 -2.4 99
2019-01-23 02:00:00 9.9 24 Oeste 71 Noroeste 0 999.9 -1.5 99
2019-01-23 01:00:00 9.5 18 Oeste 46 Noroeste 0 1000.5 -1.4 99
2019-01-23 00:00:00 9.2 19 Oeste 49 Noroeste 0.5 1001.1 -1.3 99
2019-01-22 23:00:00 8.8 21 Oeste 54 Noroeste 1.1 1001.4 -1.9 99
2019-01-22 22:00:00 8.7 22 Oeste 55 Oeste 1.4 1001.9 -2.4 99
2019-01-22 21:00:00 7.6 23 Sudoeste 52 Sudoeste 2 1002.4 -2.2 99
2019-01-22 20:00:00 7.2 19 Sudoeste 42 Sudoeste 2.6 1003.3 -1.4 99
2019-01-22 19:00:00 7.8 14 Oeste 40 Oeste 0.2 1004.3 -1.1 99
2019-01-22 18:00:00 8 17 Oeste 45 Oeste 0.4 1004.6 -0.9 99
2019-01-22 17:00:00 9.1 18 Oeste 44 Oeste 0 1004.7 -2 95
2019-01-22 16:00:00 9.4 29 Noroeste 55 Noroeste 0.1 1005.4 -0.7 97
2019-01-22 15:00:00 9.1 29 Noroeste 49 Noroeste 1 1005.5 -1.5 99
2019-01-22 14:00:00 9.2 23 Oeste 93 Noroeste 0.1 1006.7 -0.5 96
2019-01-22 13:00:00 8.3 21 Oeste 52 Oeste 3.4 1006.1 -1.2 99
2019-01-22 12:00:00 8.1 17 Sudoeste 69 Sudoeste 2.5 1007 -1.3 99
2019-01-22 11:00:00 7.9 21 Oeste 69 Sudoeste 1.2 1007.2 -1.3 99
2019-01-22 10:00:00 8.6 21 Sudoeste 47 Sudoeste 0 1007.3 -2.1 94
2019-01-22 09:00:00 7.8 16 Sudoeste 41 Sudoeste 0 1008.3 -2.1 93
2019-01-22 08:00:00 8.6 15 Sudoeste 43 Sudoeste 0 1008.5 -2.8 88
2019-01-22 07:00:00 8.7 18 Sudoeste 35 Sudoeste 0 1009.4 -3.3 85
2019-01-22 06:00:00 9.1 12 Oeste 36 Oeste 0 1010.4 -2.9 84
2019-01-22 05:00:00 9.1 13 Sudoeste 31 Oeste 0 1011.3 -3.1 82
2019-01-22 04:00:00 8.1 10 Sudoeste 33 Noroeste 0 1012.7 -2.5 91
2019-01-22 03:00:00 7.3 11 Sudoeste 24 Sudoeste 0 1013.3 -2.4 95
2019-01-22 02:00:00 7.6 9 Sudoeste 18 Oeste 0 1014.4 -1.3 87
2019-01-22 01:00:00 8.7 8 Oeste 22 Oeste 0 1015.2 -1.2 80
2019-01-22 00:00:00 8.8 13 Noroeste 24 Oeste 0 1015.7 -1.4 81
2019-01-21 23:00:00 8.6 12 Oeste 28 Noroeste 0 1015.7 -1.3 77
2019-01-21 22:00:00 8.7 16 Oeste 27 Oeste 0 1016.4 -0.4 77
2019-01-21 21:00:00 8.5 12 Oeste 28 Oeste 0 1017.1 0.4 83
2019-01-21 20:00:00 8.7 16 Oeste 25 Oeste 0 1017 0.4 77
2019-01-21 19:00:00 8.5 10 Oeste 31 Noroeste 0 1016.8 0.2 79
2019-01-21 18:00:00 8.8 24 Noroeste 34 Noroeste 0 1016.7 0.2 79
2019-01-21 17:00:00 8.9 22 Noroeste 33 Noroeste 0 1016.6 -0.2 75
2019-01-21 16:00:00 9.1 24 Noroeste 37 Noroeste 0 1016.6 -0.5 77
2019-01-21 15:00:00 9.6 30 Noroeste 43 Noroeste 0 1016.5 -1.1 76
2019-01-21 14:00:00 9.5 33 Noroeste 71 Noroeste 0 1016.8 -0.4 79
2019-01-21 13:00:00 9.7 32 Noroeste 71 Noroeste 0 1017.1 0.8 78
2019-01-21 12:00:00 9.5 33 Noroeste 69 Noroeste 0 1017.6 1.9 82
2019-01-21 11:00:00 9.4 36 Noroeste 47 Noroeste 0 1017.2 2 78
2019-01-21 10:00:00 9.2 27 Noroeste 40 Noroeste 0 1016.3 1.7 79
2019-01-21 09:00:00 9.3 27 Noroeste 40 Noroeste 0 1015.7 1.3 76
2019-01-21 08:00:00 9.4 31 Noroeste 41 Norte 0 1015.2 1.3 83
2019-01-21 07:00:00 9.5 35 Noroeste 72 Noroeste 0 1014.6 0.9 88
2019-01-21 06:00:00 9.3 36 Noroeste 47 Norte 0 1014.4 1 86
2019-01-21 05:00:00 9.4 31 Norte 42 Norte 0 1013.9 0.7 98
2019-01-21 04:00:00 9.3 30 Noroeste 71 Norte 0 1013.7 0.3 99
2019-01-21 03:00:00 9.7 28 Noroeste 50 Norte 0.1 1013.4 0.5 95
2019-01-21 02:00:00 10.3 20 Norte 34 Noroeste 0 1013.2 1 86
2019-01-21 01:00:00 10 24 Noroeste 36 Noroeste 0 1013.4 1.4 88
2019-01-21 00:00:00 9.3 26 Norte 54 Noroeste 0.9 1012.9 1.4 99
2019-01-20 23:00:00 9.3 35 Noroeste 72 Noroeste 0 1012.2 1.1 98
2019-01-20 22:00:00 10.4 30 Noroeste 72 Noroeste 0 1012 1.7 95
2019-01-20 21:00:00 10.8 36 Noroeste 72 Noroeste 0 1011.5 1.8 91
2019-01-20 20:00:00 10.9 31 Noroeste 71 Noroeste 0 1011.1 2 87
2019-01-20 19:00:00 11.1 37 Noroeste 49 Noroeste 0 1010.3 1.4 87
2019-01-20 18:00:00 10.9 37 Noroeste 71 Noroeste 0 1009.7 1.3 95
2019-01-20 17:00:00 10.9 37 Noroeste 47 Noroeste 0 1009.1 1 99
2019-01-20 16:00:00 10.2 24 Noroeste 46 Noroeste 0.2 1008.9 0.5 99
2019-01-20 15:00:00 11 31 Noroeste 48 Noroeste 0 1008.4 0.2 93
2019-01-20 14:00:00 10.6 30 Noroeste 45 Noroeste 0 1008.1 0.6 99
2019-01-20 13:00:00 10.1 32 Noroeste 71 Noroeste 0 1008.4 2.1 99
2019-01-20 12:00:00 10.6 28 Noroeste 36 Noroeste 0 1008.2 2.5 98
2019-01-20 11:00:00 10.2 22 Oeste 50 Noroeste 0 1007.5 2.8 99
2019-01-20 10:00:00 10.3 39 Noroeste 70 Noroeste 0 1006.3 1.8 98
2019-01-20 09:00:00 10 19 Oeste 54 Noroeste 0 1005.7 1.8 94
2019-01-20 08:00:00 10.3 45 Noroeste 59 Oeste 0.2 1004.7 1.1 95
2019-01-20 07:00:00 9.4 26 Oeste 53 Oeste 0.6 1004.5 1.3 99
2019-01-20 06:00:00 9.4 17 Oeste 54 Noroeste 0.3 1003.9 0.9 99
2019-01-20 05:00:00 10.1 12 Oeste 24 Oeste 0 1003.6 1.1 97
2019-01-20 04:00:00 10.3 16 Oeste 32 Noroeste 0 1003.2 1.1 95
2019-01-20 03:00:00 10.1 12 Oeste 21 Noroeste 0 1003 1.5 92
2019-01-20 02:00:00 10.1 9 Oeste 19 Oeste 0 1002.5 1.5 88
2019-01-20 01:00:00 9.6 6 Sudoeste 18 Sudoeste 0 1002.1 1.7 83
2019-01-20 00:00:00 9.1 5 Sur 8 Sudeste 0 1001.5 1.4 88
2019-01-19 23:00:00 9.6 4 Sudeste 9 Este 0 1001 1 84
2019-01-19 22:00:00 9.7 4 Sur 15 Sur 0 1000.4 0.5 81
2019-01-19 21:00:00 10 4 Sudeste 22 Sur 0 1000.1 -0.1 79
2019-01-19 20:00:00 10.1 10 Sur 30 Sur 0 1000 -0.7 77
2019-01-19 19:00:00 10.1 15 Sur 28 Sur 0 999.9 -1.5 77
2019-01-19 18:00:00 10.2 12 Sur 25 Sur 0 1000.2 -1.7 77
2019-01-19 17:00:00 11.1 10 Sur 24 Sur 0 1000.7 -2.2 73
2019-01-19 16:00:00 11.5 9 Sudeste 28 Sur 0 1001.4 -3.3 73
2019-01-19 15:00:00 11.9 16 Sur 27 Sudeste 0 1001.9 -4 71
2019-01-19 14:00:00 11.6 16 Sur 28 Sur 0 1002.9 -3.9 72
2019-01-19 13:00:00 11.6 13 Sur 24 Sur 0 1004.7 -2.1 72
2019-01-19 12:00:00 11.3 12 Sur 22 Sudoeste 0 1005.9 -1.1 73
2019-01-19 11:00:00 9.7 14 Sur 24 Sur 0 1006.8 -0.3 81
2019-01-19 10:00:00 8.9 17 Sur 28 Sudoeste 0 1006.8 0 84
2019-01-19 09:00:00 8 17 Sur 30 Sudoeste 0 1007 0.1 87
2019-01-19 08:00:00 8.6 26 Sudoeste 37 Sudoeste 0 1007.1 -0.2 83
2019-01-19 07:00:00 8.5 27 Sudoeste 42 Sur 0 1006.8 -1.2 85
2019-01-19 06:00:00 8.5 27 Sudoeste 41 Sur 0 1006.9 -1.6 90
2019-01-19 05:00:00 8.4 27 Sudoeste 38 Sudoeste 0 1007.3 -0.8 92
2019-01-19 04:00:00 8 20 Sur 39 Sudoeste 0.1 1008 -0.5 99
2019-01-19 03:00:00 8.7 15 Sudoeste 37 Sur 0.3 1008.5 -0.3 98
2019-01-19 02:00:00 8.3 24 Sur 44 Sudoeste 0 1008.1 -0.8 98
2019-01-19 01:00:00 8.7 24 Sudoeste 44 Sur 0 1008.5 -0.1 98
2019-01-19 00:00:00 7.7 23 Sur 43 Sur 0.3 1008.8 0.3 98